sensor_id;sensor_type;location;lat;lon;timestamp;temperature;humidity
3648;DHT22;1840;48.892;15.312;2024-03-02T00:01:55;6.00;99.90
3648;DHT22;1840;48.892;15.312;2024-03-02T00:04:24;6.00;99.90
3648;DHT22;1840;48.892;15.312;2024-03-02T00:06:53;5.90;99.90
3648;DHT22;1840;48.892;15.312;2024-03-02T00:09:22;5.90;99.90
3648;DHT22;1840;48.892;15.312;2024-03-02T00:11:53;5.80;99.90
3648;DHT22;1840;48.892;15.312;2024-03-02T00:14:22;5.80;99.90
3648;DHT22;1840;48.892;15.312;2024-03-02T00:16:51;5.70;99.90
3648;DHT22;1840;48.892;15.312;2024-03-02T00:19:20;5.70;99.90
3648;DHT22;1840;48.892;15.312;2024-03-02T00:21:48;5.70;99.90
3648;DHT22;1840;48.892;15.312;2024-03-02T00:24:21;5.70;99.90
3648;DHT22;1840;48.892;15.312;2024-03-02T00:26:49;5.70;99.90
3648;DHT22;1840;48.892;15.312;2024-03-02T00:29:19;5.60;99.90
3648;DHT22;1840;48.892;15.312;2024-03-02T00:31:48;5.60;99.90
3648;DHT22;1840;48.892;15.312;2024-03-02T00:34:17;5.50;99.90
3648;DHT22;1840;48.892;15.312;2024-03-02T00:36:46;5.50;99.90
3648;DHT22;1840;48.892;15.312;2024-03-02T00:39:15;5.40;99.90
3648;DHT22;1840;48.892;15.312;2024-03-02T00:41:45;5.40;99.90
3648;DHT22;1840;48.892;15.312;2024-03-02T00:44:15;5.40;99.90
3648;DHT22;1840;48.892;15.312;2024-03-02T00:46:45;5.40;99.90
3648;DHT22;1840;48.892;15.312;2024-03-02T00:49:18;5.40;99.90
3648;DHT22;1840;48.892;15.312;2024-03-02T00:51:49;5.40;99.90
3648;DHT22;1840;48.892;15.312;2024-03-02T00:54:20;5.40;99.90
3648;DHT22;1840;48.892;15.312;2024-03-02T00:56:48;5.40;99.90
3648;DHT22;1840;48.892;15.312;2024-03-02T00:59:17;5.40;99.90
3648;DHT22;1840;48.892;15.312;2024-03-02T01:01:48;5.50;99.90
3648;DHT22;1840;48.892;15.312;2024-03-02T01:04:17;5.50;99.90
3648;DHT22;1840;48.892;15.312;2024-03-02T01:06:45;5.50;99.90
3648;DHT22;1840;48.892;15.312;2024-03-02T01:09:15;5.50;99.90
3648;DHT22;1840;48.892;15.312;2024-03-02T01:11:45;5.50;99.90
3648;DHT22;1840;48.892;15.312;2024-03-02T01:14:13;5.50;99.90
3648;DHT22;1840;48.892;15.312;2024-03-02T01:16:42;5.50;99.90
3648;DHT22;1840;48.892;15.312;2024-03-02T01:19:12;5.40;99.90
3648;DHT22;1840;48.892;15.312;2024-03-02T01:21:42;5.40;99.90
3648;DHT22;1840;48.892;15.312;2024-03-02T01:24:10;5.40;99.90
3648;DHT22;1840;48.892;15.312;2024-03-02T01:26:40;5.50;99.90
3648;DHT22;1840;48.892;15.312;2024-03-02T01:29:08;5.40;99.90
3648;DHT22;1840;48.892;15.312;2024-03-02T01:31:37;5.40;99.90
3648;DHT22;1840;48.892;15.312;2024-03-02T01:34:06;5.50;99.90
3648;DHT22;1840;48.892;15.312;2024-03-02T01:36:36;5.40;99.90
3648;DHT22;1840;48.892;15.312;2024-03-02T01:39:05;5.40;99.90
3648;DHT22;1840;48.892;15.312;2024-03-02T01:41:36;5.40;99.90
3648;DHT22;1840;48.892;15.312;2024-03-02T01:44:04;5.50;99.90
3648;DHT22;1840;48.892;15.312;2024-03-02T01:46:33;5.50;99.90
3648;DHT22;1840;48.892;15.312;2024-03-02T01:49:02;5.40;99.90
3648;DHT22;1840;48.892;15.312;2024-03-02T01:51:31;5.50;99.90
3648;DHT22;1840;48.892;15.312;2024-03-02T01:54:01;5.60;99.90
3648;DHT22;1840;48.892;15.312;2024-03-02T01:56:30;5.60;99.90
3648;DHT22;1840;48.892;15.312;2024-03-02T01:58:58;5.60;99.90
3648;DHT22;1840;48.892;15.312;2024-03-02T02:01:27;5.50;99.90
3648;DHT22;1840;48.892;15.312;2024-03-02T02:03:56;5.50;99.90
3648;DHT22;1840;48.892;15.312;2024-03-02T02:06:24;5.50;99.90
3648;DHT22;1840;48.892;15.312;2024-03-02T02:08:53;5.50;99.90
3648;DHT22;1840;48.892;15.312;2024-03-02T02:11:23;5.50;99.90
3648;DHT22;1840;48.892;15.312;2024-03-02T02:13:51;5.50;99.90
3648;DHT22;1840;48.892;15.312;2024-03-02T02:16:22;5.60;99.90
3648;DHT22;1840;48.892;15.312;2024-03-02T02:18:50;5.60;99.90
3648;DHT22;1840;48.892;15.312;2024-03-02T02:21:23;5.70;99.90
3648;DHT22;1840;48.892;15.312;2024-03-02T02:23:52;5.70;99.90
3648;DHT22;1840;48.892;15.312;2024-03-02T02:26:20;5.70;99.90
3648;DHT22;1840;48.892;15.312;2024-03-02T02:28:48;5.60;99.90
3648;DHT22;1840;48.892;15.312;2024-03-02T02:31:17;5.60;99.90
3648;DHT22;1840;48.892;15.312;2024-03-02T02:33:45;5.70;99.90
3648;DHT22;1840;48.892;15.312;2024-03-02T02:36:15;5.70;99.90
3648;DHT22;1840;48.892;15.312;2024-03-02T02:38:46;5.80;99.90
3648;DHT22;1840;48.892;15.312;2024-03-02T02:41:16;6.00;99.90
3648;DHT22;1840;48.892;15.312;2024-03-02T02:43:44;6.00;99.90
3648;DHT22;1840;48.892;15.312;2024-03-02T02:46:13;6.00;99.90
3648;DHT22;1840;48.892;15.312;2024-03-02T02:48:41;6.00;99.90
3648;DHT22;1840;48.892;15.312;2024-03-02T02:51:09;6.00;99.90
3648;DHT22;1840;48.892;15.312;2024-03-02T02:53:38;6.10;99.90
3648;DHT22;1840;48.892;15.312;2024-03-02T02:56:09;6.10;99.90
3648;DHT22;1840;48.892;15.312;2024-03-02T02:58:37;6.30;99.90
3648;DHT22;1840;48.892;15.312;2024-03-02T03:01:05;6.20;99.90
3648;DHT22;1840;48.892;15.312;2024-03-02T03:03:34;6.20;99.90
3648;DHT22;1840;48.892;15.312;2024-03-02T03:06:03;6.20;99.90
3648;DHT22;1840;48.892;15.312;2024-03-02T03:08:32;6.20;99.90
3648;DHT22;1840;48.892;15.312;2024-03-02T03:11:00;6.20;99.90
3648;DHT22;1840;48.892;15.312;2024-03-02T03:13:30;6.20;99.90
3648;DHT22;1840;48.892;15.312;2024-03-02T03:15:59;6.20;99.90
3648;DHT22;1840;48.892;15.312;2024-03-02T03:18:27;6.10;99.90
3648;DHT22;1840;48.892;15.312;2024-03-02T03:20:56;6.00;99.90
3648;DHT22;1840;48.892;15.312;2024-03-02T03:23:24;6.00;99.90
3648;DHT22;1840;48.892;15.312;2024-03-02T03:25:52;6.00;99.90
3648;DHT22;1840;48.892;15.312;2024-03-02T03:28:21;6.00;99.90
3648;DHT22;1840;48.892;15.312;2024-03-02T03:30:50;6.00;99.90
3648;DHT22;1840;48.892;15.312;2024-03-02T03:33:19;6.00;99.90
3648;DHT22;1840;48.892;15.312;2024-03-02T03:35:47;6.00;99.90
3648;DHT22;1840;48.892;15.312;2024-03-02T03:38:15;6.10;99.90
3648;DHT22;1840;48.892;15.312;2024-03-02T03:40:44;6.10;99.90
3648;DHT22;1840;48.892;15.312;2024-03-02T03:43:12;6.20;99.90
3648;DHT22;1840;48.892;15.312;2024-03-02T03:45:41;6.10;99.90
3648;DHT22;1840;48.892;15.312;2024-03-02T03:48:10;6.10;99.90
3648;DHT22;1840;48.892;15.312;2024-03-02T03:50:40;6.10;99.90
3648;DHT22;1840;48.892;15.312;2024-03-02T03:53:08;6.10;99.90
3648;DHT22;1840;48.892;15.312;2024-03-02T03:55:37;6.00;99.90
3648;DHT22;1840;48.892;15.312;2024-03-02T03:58:05;6.00;99.90
3648;DHT22;1840;48.892;15.312;2024-03-02T04:00:33;6.10;99.90
3648;DHT22;1840;48.892;15.312;2024-03-02T04:03:02;6.20;99.90
3648;DHT22;1840;48.892;15.312;2024-03-02T04:05:32;6.30;99.90
3648;DHT22;1840;48.892;15.312;2024-03-02T04:08:00;6.40;99.90
3648;DHT22;1840;48.892;15.312;2024-03-02T04:10:29;6.40;99.90
3648;DHT22;1840;48.892;15.312;2024-03-02T04:12:58;6.40;99.90
3648;DHT22;1840;48.892;15.312;2024-03-02T04:15:26;6.40;99.90
3648;DHT22;1840;48.892;15.312;2024-03-02T04:17:55;6.40;99.90
3648;DHT22;1840;48.892;15.312;2024-03-02T04:20:23;6.40;99.90
3648;DHT22;1840;48.892;15.312;2024-03-02T04:22:53;6.40;99.90
3648;DHT22;1840;48.892;15.312;2024-03-02T04:25:22;6.30;99.90
3648;DHT22;1840;48.892;15.312;2024-03-02T04:27:50;6.30;99.90
3648;DHT22;1840;48.892;15.312;2024-03-02T04:30:19;6.30;99.90
3648;DHT22;1840;48.892;15.312;2024-03-02T04:32:47;6.30;99.90
3648;DHT22;1840;48.892;15.312;2024-03-02T04:35:16;6.30;99.90
3648;DHT22;1840;48.892;15.312;2024-03-02T04:37:45;6.20;99.90
3648;DHT22;1840;48.892;15.312;2024-03-02T04:40:15;6.10;99.90
3648;DHT22;1840;48.892;15.312;2024-03-02T04:42:44;6.20;99.90
3648;DHT22;1840;48.892;15.312;2024-03-02T04:45:12;6.30;99.90
3648;DHT22;1840;48.892;15.312;2024-03-02T04:47:41;6.30;99.90
3648;DHT22;1840;48.892;15.312;2024-03-02T04:50:09;6.30;99.90
3648;DHT22;1840;48.892;15.312;2024-03-02T04:52:38;6.20;99.90
3648;DHT22;1840;48.892;15.312;2024-03-02T04:55:06;6.20;99.90
3648;DHT22;1840;48.892;15.312;2024-03-02T04:57:48;6.30;99.90
3648;DHT22;1840;48.892;15.312;2024-03-02T05:00:18;6.20;99.90
3648;DHT22;1840;48.892;15.312;2024-03-02T05:02:46;6.20;99.90
3648;DHT22;1840;48.892;15.312;2024-03-02T05:05:15;6.10;99.90
3648;DHT22;1840;48.892;15.312;2024-03-02T05:07:43;6.00;99.90
3648;DHT22;1840;48.892;15.312;2024-03-02T05:10:12;5.80;99.90
3648;DHT22;1840;48.892;15.312;2024-03-02T05:12:41;5.60;99.90
3648;DHT22;1840;48.892;15.312;2024-03-02T05:15:25;5.40;99.90
3648;DHT22;1840;48.892;15.312;2024-03-02T05:17:57;5.30;99.90
3648;DHT22;1840;48.892;15.312;2024-03-02T05:20:27;5.30;99.90
3648;DHT22;1840;48.892;15.312;2024-03-02T05:22:55;5.20;99.90
3648;DHT22;1840;48.892;15.312;2024-03-02T05:25:23;5.30;99.90
3648;DHT22;1840;48.892;15.312;2024-03-02T05:27:53;5.30;99.90
3648;DHT22;1840;48.892;15.312;2024-03-02T05:30:21;5.30;99.90
3648;DHT22;1840;48.892;15.312;2024-03-02T05:32:51;5.40;99.90
3648;DHT22;1840;48.892;15.312;2024-03-02T05:35:20;5.40;99.90
3648;DHT22;1840;48.892;15.312;2024-03-02T05:37:48;5.60;99.90
3648;DHT22;1840;48.892;15.312;2024-03-02T05:40:17;5.60;99.90
3648;DHT22;1840;48.892;15.312;2024-03-02T05:42:49;5.60;99.90
3648;DHT22;1840;48.892;15.312;2024-03-02T05:45:17;5.60;99.90
3648;DHT22;1840;48.892;15.312;2024-03-02T05:47:46;5.60;99.90
3648;DHT22;1840;48.892;15.312;2024-03-02T05:50:16;5.50;99.90
3648;DHT22;1840;48.892;15.312;2024-03-02T05:52:45;5.40;99.90
3648;DHT22;1840;48.892;15.312;2024-03-02T05:55:14;5.50;99.90
3648;DHT22;1840;48.892;15.312;2024-03-02T05:57:42;5.40;99.90
3648;DHT22;1840;48.892;15.312;2024-03-02T06:00:26;5.50;99.90
3648;DHT22;1840;48.892;15.312;2024-03-02T06:02:54;5.50;99.90
3648;DHT22;1840;48.892;15.312;2024-03-02T06:05:25;5.60;99.90
3648;DHT22;1840;48.892;15.312;2024-03-02T06:07:53;5.70;99.90
3648;DHT22;1840;48.892;15.312;2024-03-02T06:10:22;5.80;99.90
3648;DHT22;1840;48.892;15.312;2024-03-02T06:12:50;5.80;99.90
3648;DHT22;1840;48.892;15.312;2024-03-02T06:15:18;6.00;99.90
3648;DHT22;1840;48.892;15.312;2024-03-02T06:17:47;5.90;99.90
3648;DHT22;1840;48.892;15.312;2024-03-02T06:20:15;6.00;99.90
3648;DHT22;1840;48.892;15.312;2024-03-02T06:22:45;5.90;99.90
3648;DHT22;1840;48.892;15.312;2024-03-02T06:25:14;5.80;99.90
3648;DHT22;1840;48.892;15.312;2024-03-02T06:27:42;5.60;99.90
3648;DHT22;1840;48.892;15.312;2024-03-02T06:30:11;5.70;99.90
3648;DHT22;1840;48.892;15.312;2024-03-02T06:32:39;5.50;99.90
3648;DHT22;1840;48.892;15.312;2024-03-02T06:35:08;5.60;99.90
3648;DHT22;1840;48.892;15.312;2024-03-02T06:37:38;5.50;99.90
3648;DHT22;1840;48.892;15.312;2024-03-02T06:40:09;5.70;99.90
3648;DHT22;1840;48.892;15.312;2024-03-02T06:42:37;5.60;99.90
3648;DHT22;1840;48.892;15.312;2024-03-02T06:45:06;5.70;99.90
3648;DHT22;1840;48.892;15.312;2024-03-02T06:47:35;5.70;99.90
3648;DHT22;1840;48.892;15.312;2024-03-02T06:50:04;5.90;99.90
3648;DHT22;1840;48.892;15.312;2024-03-02T06:52:34;6.00;99.90
3648;DHT22;1840;48.892;15.312;2024-03-02T06:55:02;6.00;99.90
3648;DHT22;1840;48.892;15.312;2024-03-02T06:57:32;5.90;99.90
3648;DHT22;1840;48.892;15.312;2024-03-02T07:00:02;5.90;99.90
3648;DHT22;1840;48.892;15.312;2024-03-02T07:02:32;5.90;99.90
3648;DHT22;1840;48.892;15.312;2024-03-02T07:05:01;6.00;99.90
3648;DHT22;1840;48.892;15.312;2024-03-02T07:07:29;5.90;99.90
3648;DHT22;1840;48.892;15.312;2024-03-02T07:09:58;5.90;99.90
3648;DHT22;1840;48.892;15.312;2024-03-02T07:12:27;6.00;99.90
3648;DHT22;1840;48.892;15.312;2024-03-02T07:14:57;5.80;99.90
3648;DHT22;1840;48.892;15.312;2024-03-02T07:17:51;5.80;99.90
3648;DHT22;1840;48.892;15.312;2024-03-02T07:20:19;5.80;99.90
3648;DHT22;1840;48.892;15.312;2024-03-02T07:22:48;5.90;99.90
3648;DHT22;1840;48.892;15.312;2024-03-02T07:25:17;6.00;99.90
3648;DHT22;1840;48.892;15.312;2024-03-02T07:27:51;5.90;99.90
3648;DHT22;1840;48.892;15.312;2024-03-02T07:30:21;6.20;99.90
3648;DHT22;1840;48.892;15.312;2024-03-02T07:32:50;6.30;99.90
3648;DHT22;1840;48.892;15.312;2024-03-02T07:35:19;6.20;99.90
3648;DHT22;1840;48.892;15.312;2024-03-02T07:37:49;6.10;99.90
3648;DHT22;1840;48.892;15.312;2024-03-02T07:40:18;6.30;99.90
3648;DHT22;1840;48.892;15.312;2024-03-02T07:42:46;6.40;99.90
3648;DHT22;1840;48.892;15.312;2024-03-02T07:45:15;6.40;99.90
3648;DHT22;1840;48.892;15.312;2024-03-02T07:47:46;6.40;99.90
3648;DHT22;1840;48.892;15.312;2024-03-02T07:50:15;6.30;99.90
3648;DHT22;1840;48.892;15.312;2024-03-02T07:52:43;6.40;99.90
3648;DHT22;1840;48.892;15.312;2024-03-02T07:55:12;6.30;99.90
3648;DHT22;1840;48.892;15.312;2024-03-02T07:57:44;6.20;99.90
3648;DHT22;1840;48.892;15.312;2024-03-02T08:00:12;6.10;99.90
3648;DHT22;1840;48.892;15.312;2024-03-02T08:02:42;6.20;99.90
3648;DHT22;1840;48.892;15.312;2024-03-02T08:05:12;6.40;99.90
3648;DHT22;1840;48.892;15.312;2024-03-02T08:07:40;6.50;99.90
3648;DHT22;1840;48.892;15.312;2024-03-02T08:10:10;6.70;99.90
3648;DHT22;1840;48.892;15.312;2024-03-02T08:12:41;6.80;99.90
3648;DHT22;1840;48.892;15.312;2024-03-02T08:15:10;6.80;99.90
3648;DHT22;1840;48.892;15.312;2024-03-02T08:17:40;6.90;99.90
3648;DHT22;1840;48.892;15.312;2024-03-02T08:20:13;7.10;99.90
3648;DHT22;1840;48.892;15.312;2024-03-02T08:22:42;7.00;99.90
3648;DHT22;1840;48.892;15.312;2024-03-02T08:25:10;6.60;99.90
3648;DHT22;1840;48.892;15.312;2024-03-02T08:27:40;6.80;99.90
3648;DHT22;1840;48.892;15.312;2024-03-02T08:30:09;6.90;99.90
3648;DHT22;1840;48.892;15.312;2024-03-02T08:32:38;6.90;99.90
3648;DHT22;1840;48.892;15.312;2024-03-02T08:35:08;7.20;99.90
3648;DHT22;1840;48.892;15.312;2024-03-02T08:37:39;7.20;99.90
3648;DHT22;1840;48.892;15.312;2024-03-02T08:40:10;7.10;99.90
3648;DHT22;1840;48.892;15.312;2024-03-02T08:42:43;7.20;99.90
3648;DHT22;1840;48.892;15.312;2024-03-02T08:45:12;7.20;99.90
3648;DHT22;1840;48.892;15.312;2024-03-02T08:47:41;7.20;99.90
3648;DHT22;1840;48.892;15.312;2024-03-02T08:50:10;7.00;99.90
3648;DHT22;1840;48.892;15.312;2024-03-02T08:52:40;6.80;99.90
3648;DHT22;1840;48.892;15.312;2024-03-02T08:55:10;6.70;99.90
3648;DHT22;1840;48.892;15.312;2024-03-02T08:57:39;6.60;99.90
3648;DHT22;1840;48.892;15.312;2024-03-02T09:00:09;6.80;99.90
3648;DHT22;1840;48.892;15.312;2024-03-02T09:02:41;6.80;99.90
3648;DHT22;1840;48.892;15.312;2024-03-02T09:05:09;7.10;99.90
3648;DHT22;1840;48.892;15.312;2024-03-02T09:07:40;7.40;99.90
3648;DHT22;1840;48.892;15.312;2024-03-02T09:10:09;7.70;99.90
3648;DHT22;1840;48.892;15.312;2024-03-02T09:12:38;7.80;99.90
3648;DHT22;1840;48.892;15.312;2024-03-02T09:15:07;7.40;99.90
3648;DHT22;1840;48.892;15.312;2024-03-02T09:17:36;7.30;99.90
3648;DHT22;1840;48.892;15.312;2024-03-02T09:20:05;7.30;99.90
3648;DHT22;1840;48.892;15.312;2024-03-02T09:22:33;7.40;99.90
3648;DHT22;1840;48.892;15.312;2024-03-02T09:25:04;7.40;99.90
3648;DHT22;1840;48.892;15.312;2024-03-02T09:27:36;7.60;99.90
3648;DHT22;1840;48.892;15.312;2024-03-02T09:30:09;7.50;99.90
3648;DHT22;1840;48.892;15.312;2024-03-02T09:32:38;7.70;99.90
3648;DHT22;1840;48.892;15.312;2024-03-02T09:35:07;8.00;99.90
3648;DHT22;1840;48.892;15.312;2024-03-02T09:37:36;7.90;99.90
3648;DHT22;1840;48.892;15.312;2024-03-02T09:40:07;7.80;99.90
3648;DHT22;1840;48.892;15.312;2024-03-02T09:42:36;7.80;99.90
3648;DHT22;1840;48.892;15.312;2024-03-02T09:45:06;7.80;99.90
3648;DHT22;1840;48.892;15.312;2024-03-02T09:47:35;7.60;99.90
3648;DHT22;1840;48.892;15.312;2024-03-02T09:50:04;7.60;99.90
3648;DHT22;1840;48.892;15.312;2024-03-02T09:52:32;7.60;99.90
3648;DHT22;1840;48.892;15.312;2024-03-02T09:55:01;7.50;99.90
3648;DHT22;1840;48.892;15.312;2024-03-02T09:57:34;7.40;99.90
3648;DHT22;1840;48.892;15.312;2024-03-02T10:00:08;7.60;99.90
3648;DHT22;1840;48.892;15.312;2024-03-02T10:02:41;7.60;99.90
3648;DHT22;1840;48.892;15.312;2024-03-02T10:05:10;7.60;99.90
3648;DHT22;1840;48.892;15.312;2024-03-02T10:07:39;7.40;99.90
3648;DHT22;1840;48.892;15.312;2024-03-02T10:10:13;7.30;99.90
3648;DHT22;1840;48.892;15.312;2024-03-02T10:12:44;7.40;99.90
3648;DHT22;1840;48.892;15.312;2024-03-02T10:15:12;7.30;99.90
3648;DHT22;1840;48.892;15.312;2024-03-02T10:17:41;7.10;99.90
3648;DHT22;1840;48.892;15.312;2024-03-02T10:20:22;7.10;99.90
3648;DHT22;1840;48.892;15.312;2024-03-02T10:22:51;6.90;99.90
3648;DHT22;1840;48.892;15.312;2024-03-02T10:25:29;6.90;99.90
3648;DHT22;1840;48.892;15.312;2024-03-02T10:28:15;7.10;99.90
3648;DHT22;1840;48.892;15.312;2024-03-02T10:30:43;7.20;99.90
3648;DHT22;1840;48.892;15.312;2024-03-02T10:33:15;7.30;99.90
3648;DHT22;1840;48.892;15.312;2024-03-02T10:35:45;7.50;99.90
3648;DHT22;1840;48.892;15.312;2024-03-02T10:38:16;7.50;99.90
3648;DHT22;1840;48.892;15.312;2024-03-02T10:40:47;7.60;99.90
3648;DHT22;1840;48.892;15.312;2024-03-02T10:43:17;7.90;99.70
3648;DHT22;1840;48.892;15.312;2024-03-02T10:45:49;8.10;99.60
3648;DHT22;1840;48.892;15.312;2024-03-02T10:48:19;8.20;99.60
3648;DHT22;1840;48.892;15.312;2024-03-02T10:50:48;8.10;99.50
3648;DHT22;1840;48.892;15.312;2024-03-02T10:53:17;7.80;99.90
3648;DHT22;1840;48.892;15.312;2024-03-02T10:55:50;7.70;99.90
3648;DHT22;1840;48.892;15.312;2024-03-02T10:58:24;7.60;99.90
3648;DHT22;1840;48.892;15.312;2024-03-02T11:00:54;7.70;99.90
3648;DHT22;1840;48.892;15.312;2024-03-02T11:03:23;7.90;99.90
3648;DHT22;1840;48.892;15.312;2024-03-02T11:05:52;7.80;99.80
3648;DHT22;1840;48.892;15.312;2024-03-02T11:08:21;7.70;99.70
3648;DHT22;1840;48.892;15.312;2024-03-02T11:10:58;7.90;99.90
3648;DHT22;1840;48.892;15.312;2024-03-02T11:13:31;8.00;99.30
3648;DHT22;1840;48.892;15.312;2024-03-02T11:16:15;8.00;99.30
3648;DHT22;1840;48.892;15.312;2024-03-02T11:18:45;8.10;99.50
3648;DHT22;1840;48.892;15.312;2024-03-02T11:21:14;8.30;99.30
3648;DHT22;1840;48.892;15.312;2024-03-02T11:23:43;8.40;99.30
3648;DHT22;1840;48.892;15.312;2024-03-02T11:26:18;8.30;99.50
3648;DHT22;1840;48.892;15.312;2024-03-02T11:28:48;8.20;99.60
3648;DHT22;1840;48.892;15.312;2024-03-02T11:31:16;8.20;99.70
3648;DHT22;1840;48.892;15.312;2024-03-02T11:33:45;8.10;99.80
3648;DHT22;1840;48.892;15.312;2024-03-02T11:36:13;8.00;99.60
3648;DHT22;1840;48.892;15.312;2024-03-02T11:38:44;8.10;99.70
3648;DHT22;1840;48.892;15.312;2024-03-02T11:41:14;8.20;99.50
3648;DHT22;1840;48.892;15.312;2024-03-02T11:43:43;8.30;99.20
3648;DHT22;1840;48.892;15.312;2024-03-02T11:46:15;8.10;99.00
3648;DHT22;1840;48.892;15.312;2024-03-02T11:48:43;8.10;99.10
3648;DHT22;1840;48.892;15.312;2024-03-02T11:51:12;8.20;99.00
3648;DHT22;1840;48.892;15.312;2024-03-02T11:53:41;8.30;98.90
3648;DHT22;1840;48.892;15.312;2024-03-02T11:56:12;8.30;98.90
3648;DHT22;1840;48.892;15.312;2024-03-02T11:58:42;8.20;99.20
3648;DHT22;1840;48.892;15.312;2024-03-02T12:01:11;8.00;98.80
3648;DHT22;1840;48.892;15.312;2024-03-02T12:03:42;8.00;99.20
3648;DHT22;1840;48.892;15.312;2024-03-02T12:06:11;8.30;99.00
3648;DHT22;1840;48.892;15.312;2024-03-02T12:08:41;8.20;99.00
3648;DHT22;1840;48.892;15.312;2024-03-02T12:11:13;8.10;99.30
3648;DHT22;1840;48.892;15.312;2024-03-02T12:13:52;8.40;99.00
3648;DHT22;1840;48.892;15.312;2024-03-02T12:16:24;8.40;98.70
3648;DHT22;1840;48.892;15.312;2024-03-02T12:18:54;8.30;99.10
3648;DHT22;1840;48.892;15.312;2024-03-02T12:21:23;8.20;99.10
3648;DHT22;1840;48.892;15.312;2024-03-02T12:23:52;8.10;99.50
3648;DHT22;1840;48.892;15.312;2024-03-02T12:26:20;8.00;99.40
3648;DHT22;1840;48.892;15.312;2024-03-02T12:28:50;8.30;99.30
3648;DHT22;1840;48.892;15.312;2024-03-02T12:31:19;8.20;99.30
3648;DHT22;1840;48.892;15.312;2024-03-02T12:33:47;8.40;99.70
3648;DHT22;1840;48.892;15.312;2024-03-02T12:36:17;8.70;99.40
3648;DHT22;1840;48.892;15.312;2024-03-02T12:38:47;8.80;99.40
3648;DHT22;1840;48.892;15.312;2024-03-02T12:41:17;9.00;98.90
3648;DHT22;1840;48.892;15.312;2024-03-02T12:43:46;8.90;98.80
3648;DHT22;1840;48.892;15.312;2024-03-02T12:46:14;8.60;98.80
3648;DHT22;1840;48.892;15.312;2024-03-02T12:48:43;8.70;99.50
3648;DHT22;1840;48.892;15.312;2024-03-02T12:51:12;8.70;99.10
3648;DHT22;1840;48.892;15.312;2024-03-02T12:53:42;8.70;99.20
3648;DHT22;1840;48.892;15.312;2024-03-02T12:56:11;8.70;99.20
3648;DHT22;1840;48.892;15.312;2024-03-02T12:58:40;8.70;99.30
3648;DHT22;1840;48.892;15.312;2024-03-02T13:01:09;8.60;99.40
3648;DHT22;1840;48.892;15.312;2024-03-02T13:03:39;8.50;99.70
3648;DHT22;1840;48.892;15.312;2024-03-02T13:06:08;8.40;99.50
3648;DHT22;1840;48.892;15.312;2024-03-02T13:08:36;8.50;99.40
3648;DHT22;1840;48.892;15.312;2024-03-02T13:11:06;8.50;99.40
3648;DHT22;1840;48.892;15.312;2024-03-02T13:13:35;8.50;99.50
3648;DHT22;1840;48.892;15.312;2024-03-02T13:16:07;8.60;99.80
3648;DHT22;1840;48.892;15.312;2024-03-02T13:18:36;8.80;99.70
3648;DHT22;1840;48.892;15.312;2024-03-02T13:21:04;8.90;99.30
3648;DHT22;1840;48.892;15.312;2024-03-02T13:23:33;9.00;99.40
3648;DHT22;1840;48.892;15.312;2024-03-02T13:26:01;9.00;99.30
3648;DHT22;1840;48.892;15.312;2024-03-02T13:28:31;8.80;99.40
3648;DHT22;1840;48.892;15.312;2024-03-02T13:31:00;8.70;99.70
3648;DHT22;1840;48.892;15.312;2024-03-02T13:33:28;8.60;99.70
3648;DHT22;1840;48.892;15.312;2024-03-02T13:35:58;8.60;99.90
3648;DHT22;1840;48.892;15.312;2024-03-02T13:38:26;8.60;99.90
3648;DHT22;1840;48.892;15.312;2024-03-02T13:40:55;8.70;99.90
3648;DHT22;1840;48.892;15.312;2024-03-02T13:43:23;8.60;99.90
3648;DHT22;1840;48.892;15.312;2024-03-02T13:45:53;8.40;99.90
3648;DHT22;1840;48.892;15.312;2024-03-02T13:48:22;8.40;99.90
3648;DHT22;1840;48.892;15.312;2024-03-02T13:50:52;8.30;99.90
3648;DHT22;1840;48.892;15.312;2024-03-02T13:53:21;8.40;99.90
3648;DHT22;1840;48.892;15.312;2024-03-02T13:55:50;8.30;99.90
3648;DHT22;1840;48.892;15.312;2024-03-02T13:58:19;8.40;99.90
3648;DHT22;1840;48.892;15.312;2024-03-02T14:00:47;8.70;99.90
3648;DHT22;1840;48.892;15.312;2024-03-02T14:03:17;8.60;99.90
3648;DHT22;1840;48.892;15.312;2024-03-02T14:05:47;8.60;99.90
3648;DHT22;1840;48.892;15.312;2024-03-02T14:08:17;8.50;99.90
3648;DHT22;1840;48.892;15.312;2024-03-02T14:10:46;8.60;99.90
3648;DHT22;1840;48.892;15.312;2024-03-02T14:13:15;8.60;99.90
3648;DHT22;1840;48.892;15.312;2024-03-02T14:15:44;8.60;99.90
3648;DHT22;1840;48.892;15.312;2024-03-02T14:18:13;8.60;99.90
3648;DHT22;1840;48.892;15.312;2024-03-02T14:20:43;8.40;99.90
3648;DHT22;1840;48.892;15.312;2024-03-02T14:23:12;8.40;99.90
3648;DHT22;1840;48.892;15.312;2024-03-02T14:25:41;8.30;99.90
3648;DHT22;1840;48.892;15.312;2024-03-02T14:28:11;8.20;99.90
3648;DHT22;1840;48.892;15.312;2024-03-02T14:31:00;8.10;99.90
3648;DHT22;1840;48.892;15.312;2024-03-02T14:33:29;8.10;99.90
3648;DHT22;1840;48.892;15.312;2024-03-02T14:35:59;8.10;99.90
3648;DHT22;1840;48.892;15.312;2024-03-02T14:38:28;8.00;99.90
3648;DHT22;1840;48.892;15.312;2024-03-02T14:40:56;8.00;99.90
3648;DHT22;1840;48.892;15.312;2024-03-02T14:43:25;8.00;99.90
3648;DHT22;1840;48.892;15.312;2024-03-02T14:45:54;7.90;99.90
3648;DHT22;1840;48.892;15.312;2024-03-02T14:48:23;7.90;99.90
3648;DHT22;1840;48.892;15.312;2024-03-02T14:50:52;7.90;99.90
3648;DHT22;1840;48.892;15.312;2024-03-02T14:53:22;7.90;99.90
3648;DHT22;1840;48.892;15.312;2024-03-02T14:55:50;7.80;99.90
3648;DHT22;1840;48.892;15.312;2024-03-02T14:58:19;7.80;99.90
3648;DHT22;1840;48.892;15.312;2024-03-02T15:00:47;7.80;99.90
3648;DHT22;1840;48.892;15.312;2024-03-02T15:03:16;7.80;99.90
3648;DHT22;1840;48.892;15.312;2024-03-02T15:05:44;7.80;99.90
3648;DHT22;1840;48.892;15.312;2024-03-02T15:08:13;7.80;99.90
3648;DHT22;1840;48.892;15.312;2024-03-02T15:10:44;7.70;99.90
3648;DHT22;1840;48.892;15.312;2024-03-02T15:13:13;7.60;99.90
3648;DHT22;1840;48.892;15.312;2024-03-02T15:15:42;7.60;99.90
3648;DHT22;1840;48.892;15.312;2024-03-02T15:18:10;7.60;99.90
3648;DHT22;1840;48.892;15.312;2024-03-02T15:20:39;7.60;99.90
3648;DHT22;1840;48.892;15.312;2024-03-02T15:23:08;7.60;99.90
3648;DHT22;1840;48.892;15.312;2024-03-02T15:25:37;7.60;99.90
3648;DHT22;1840;48.892;15.312;2024-03-02T15:28:07;7.40;99.90
3648;DHT22;1840;48.892;15.312;2024-03-02T15:30:36;7.30;99.90
3648;DHT22;1840;48.892;15.312;2024-03-02T15:33:04;7.40;99.90
3648;DHT22;1840;48.892;15.312;2024-03-02T15:35:33;7.30;99.90
3648;DHT22;1840;48.892;15.312;2024-03-02T15:38:01;7.30;99.90
3648;DHT22;1840;48.892;15.312;2024-03-02T15:40:33;7.40;99.90
3648;DHT22;1840;48.892;15.312;2024-03-02T15:43:02;7.40;99.90
3648;DHT22;1840;48.892;15.312;2024-03-02T15:45:32;7.40;99.90
3648;DHT22;1840;48.892;15.312;2024-03-02T15:48:01;7.20;99.90
3648;DHT22;1840;48.892;15.312;2024-03-02T15:50:30;7.10;99.90
3648;DHT22;1840;48.892;15.312;2024-03-02T15:52:59;7.10;99.90
3648;DHT22;1840;48.892;15.312;2024-03-02T15:55:31;7.00;99.90
3648;DHT22;1840;48.892;15.312;2024-03-02T15:57:59;7.00;99.90
3648;DHT22;1840;48.892;15.312;2024-03-02T16:00:32;7.00;99.90
3648;DHT22;1840;48.892;15.312;2024-03-02T16:03:01;6.90;99.90
3648;DHT22;1840;48.892;15.312;2024-03-02T16:05:30;7.00;99.90
3648;DHT22;1840;48.892;15.312;2024-03-02T16:07:58;7.00;99.90
3648;DHT22;1840;48.892;15.312;2024-03-02T16:10:27;6.90;99.90
3648;DHT22;1840;48.892;15.312;2024-03-02T16:12:56;7.00;99.90
3648;DHT22;1840;48.892;15.312;2024-03-02T16:15:27;6.90;99.90
3648;DHT22;1840;48.892;15.312;2024-03-02T16:17:57;6.90;99.90